createdAt,value
2023-04-02T00:02:32.238Z,90110.13
2023-04-02T00:05:17.094Z,90116.38
2023-04-02T00:08:02.099Z,90114.38
2023-04-02T00:10:46.963Z,90112.63
2023-04-02T00:13:32.159Z,90105.69
2023-04-02T00:16:17.021Z,90113.38
2023-04-02T00:19:01.921Z,90119.84
2023-04-02T00:21:46.664Z,90121.91
2023-04-02T00:24:31.530Z,90114.75
2023-04-02T00:27:16.437Z,90115.28
2023-04-02T00:30:01.417Z,90119.72
2023-04-02T00:32:46.537Z,90118.72
2023-04-02T00:35:31.330Z,90113.03
2023-04-02T00:38:16.297Z,90113.50
2023-04-02T00:41:01.180Z,90105.38
2023-04-02T00:43:46.069Z,90104.41
2023-04-02T00:46:30.922Z,90104.41
2023-04-02T00:49:15.706Z,90101.06
2023-04-02T00:52:00.644Z,90097.41
2023-04-02T00:54:45.664Z,90100.63
2023-04-02T00:57:30.712Z,90107.53
2023-04-02T01:00:15.771Z,90112.88
2023-04-02T01:03:00.810Z,90113.69
2023-04-02T01:05:45.571Z,90117.09
2023-04-02T01:08:30.545Z,90110.16
2023-04-02T01:11:15.368Z,90101.16
2023-04-02T01:14:00.348Z,90113.03
2023-04-02T01:16:45.294Z,90114.50
2023-04-02T01:19:30.167Z,90111.84
2023-04-02T01:22:15.355Z,90117.56
2023-04-02T01:25:00.215Z,90104.66
2023-04-02T01:27:45.273Z,90105.38
2023-04-02T01:30:30.140Z,90108.91
2023-04-02T01:33:15.291Z,90115.84
2023-04-02T01:36:00.242Z,90111.13
2023-04-02T01:41:33.395Z,90116.03
2023-04-02T01:44:18.158Z,90115.00
2023-04-02T01:47:03.118Z,90111.06
2023-04-02T01:49:48.102Z,90112.84
2023-04-02T01:52:32.927Z,90108.34
2023-04-02T01:55:17.981Z,90111.59
2023-04-02T01:58:02.821Z,90120.28
2023-04-02T02:00:47.913Z,90117.31
2023-04-02T02:03:32.955Z,90112.94
2023-04-02T02:06:17.875Z,90116.88
2023-04-02T02:09:02.755Z,90118.63
2023-04-02T02:11:47.587Z,90125.97
2023-04-02T02:14:32.591Z,90129.50
2023-04-02T02:17:17.485Z,90122.59
2023-04-02T02:20:02.518Z,90127.34
2023-04-02T02:22:47.277Z,90127.63
2023-04-02T02:25:32.532Z,90132.81
2023-04-02T02:28:17.372Z,90140.28
2023-04-02T02:31:02.186Z,90135.06
2023-04-02T02:33:47.284Z,90147.97
2023-04-02T02:36:32.214Z,90153.44
2023-04-02T02:39:16.952Z,90156.88
2023-04-02T02:42:01.924Z,90153.25
2023-04-02T02:44:46.877Z,90162.66
2023-04-02T02:47:31.879Z,90170.56
2023-04-02T02:50:16.581Z,90168.16
2023-04-02T02:53:01.581Z,90174.31
2023-04-02T02:55:46.499Z,90179.78
2023-04-02T02:58:31.521Z,90177.53
2023-04-02T03:01:16.107Z,90172.78
2023-04-02T03:04:01.154Z,90173.03
2023-04-02T03:06:46.090Z,90177.72
2023-04-02T03:09:31.076Z,90184.44
2023-04-02T03:12:15.838Z,90187.16
2023-04-02T03:15:00.840Z,90188.41
2023-04-02T03:17:45.831Z,90190.69
2023-04-02T03:20:30.770Z,90192.69
2023-04-02T03:23:15.436Z,90194.19
2023-04-02T03:26:00.411Z,90197.88
2023-04-02T03:28:45.720Z,90193.41
2023-04-02T03:31:30.651Z,90196.31
2023-04-02T03:34:15.587Z,90195.34
2023-04-02T03:37:00.667Z,90203.84
2023-04-02T03:39:45.706Z,90200.09
2023-04-02T03:42:30.617Z,90205.50
2023-04-02T03:45:15.456Z,90212.19
2023-04-02T03:48:00.334Z,90207.75
2023-04-02T03:50:45.397Z,90209.25
2023-04-02T03:53:30.477Z,90208.47
2023-04-02T03:56:15.131Z,90221.34
2023-04-02T03:58:59.976Z,90214.38
2023-04-02T04:01:44.980Z,90212.63
2023-04-02T04:04:29.874Z,90226.25
2023-04-02T04:07:14.709Z,90215.34
2023-04-02T04:09:59.831Z,90216.81
2023-04-02T04:12:44.648Z,90226.28
2023-04-02T04:15:29.628Z,90226.56
2023-04-02T04:18:14.611Z,90221.34
2023-04-02T04:20:59.358Z,90213.38
2023-04-02T04:23:44.436Z,90213.84
2023-04-02T04:26:29.085Z,90214.34
2023-04-02T04:29:13.864Z,90224.53
2023-04-02T04:31:58.883Z,90227.56
2023-04-02T04:34:44.010Z,90226.28
2023-04-02T04:37:28.831Z,90229.81
2023-04-02T04:40:13.876Z,90233.00
2023-04-02T04:42:58.546Z,90244.44
2023-04-02T04:45:43.662Z,90243.69
2023-04-02T04:48:28.836Z,90242.50
2023-04-02T04:51:13.666Z,90240.53
2023-04-02T04:53:58.349Z,90242.25
2023-04-02T04:56:43.147Z,90237.81
2023-04-02T04:59:27.776Z,90240.34
2023-04-02T05:02:12.635Z,90240.66
2023-04-02T05:04:57.760Z,90231.97
2023-04-02T05:07:42.485Z,90237.44
2023-04-02T05:10:27.527Z,90241.41
2023-04-02T05:13:12.366Z,90249.09
2023-04-02T05:15:58.862Z,90241.19
2023-04-02T05:18:44.851Z,90243.44
2023-04-02T05:21:29.735Z,90247.66
2023-04-02T05:24:14.643Z,90247.41
2023-04-02T05:26:59.583Z,90244.19
2023-04-02T05:29:44.466Z,90242.44
2023-04-02T05:32:29.608Z,90249.63
2023-04-02T05:35:14.524Z,90255.13
2023-04-02T05:37:59.471Z,90259.59
2023-04-02T05:40:44.254Z,90261.81
2023-04-02T05:43:29.351Z,90264.34
2023-04-02T05:46:14.385Z,90268.31
2023-04-02T05:48:59.327Z,90270.56
2023-04-02T05:51:44.354Z,90280.72
2023-04-02T05:54:29.291Z,90278.75
2023-04-02T05:57:14.295Z,90278.22
2023-04-02T05:59:59.070Z,90280.72
2023-04-02T06:02:44.201Z,90276.78
2023-04-02T06:05:28.991Z,90289.91
2023-04-02T06:08:14.019Z,90292.88
2023-04-02T06:10:59.068Z,90284.72
2023-04-02T06:13:44.167Z,90281.25
2023-04-02T06:16:29.222Z,90284.69
2023-04-02T06:19:14.207Z,90282.22
2023-04-02T06:21:59.120Z,90286.38
2023-04-02T06:24:44.007Z,90284.19
2023-04-02T06:27:28.963Z,90289.13
2023-04-02T06:30:13.647Z,90292.59
2023-04-02T06:32:58.367Z,90293.09
2023-04-02T06:35:43.643Z,90290.13
2023-04-02T06:38:28.344Z,90308.72
2023-04-02T06:41:13.356Z,90308.50
2023-04-02T06:43:58.091Z,90311.94
2023-04-02T06:46:43.111Z,90313.91
2023-04-02T06:49:27.789Z,90316.09
2023-04-02T06:52:12.644Z,90318.34
2023-04-02T06:54:57.552Z,90313.09
2023-04-02T06:57:43.068Z,90311.34
2023-04-02T07:00:27.804Z,90318.09
2023-04-02T07:03:12.755Z,90323.56
2023-04-02T07:05:57.775Z,90319.97
2023-04-02T07:08:42.613Z,90317.00
2023-04-02T07:11:27.335Z,90323.09
2023-04-02T07:14:12.270Z,90319.50
2023-04-02T07:16:56.976Z,90323.03
2023-04-02T07:19:41.932Z,90328.47
2023-04-02T07:22:26.671Z,90326.53
2023-04-02T07:25:11.870Z,90325.22
2023-04-02T07:27:56.808Z,90323.84
2023-04-02T07:30:41.472Z,90329.38
2023-04-02T07:33:26.156Z,90333.97
2023-04-02T07:36:11.254Z,90330.53
2023-04-02T07:38:55.880Z,90332.28
2023-04-02T07:41:40.648Z,90329.94
2023-04-02T07:44:25.507Z,90334.22
2023-04-02T07:47:10.597Z,90335.13
2023-04-02T07:49:55.407Z,90338.03
2023-04-02T07:52:40.642Z,90337.97
2023-04-02T07:55:25.588Z,90333.47
2023-04-02T07:58:10.524Z,90332.72
2023-04-02T08:00:55.344Z,90329.25
2023-04-02T08:03:40.269Z,90338.34
2023-04-02T08:06:25.306Z,90339.59
2023-04-02T08:09:10.171Z,90346.50
2023-04-02T08:11:55.202Z,90344.50
2023-04-02T08:14:40.215Z,90345.03
2023-04-02T08:17:25.058Z,90347.25
2023-04-02T08:20:10.085Z,90345.91
2023-04-02T08:22:54.966Z,90353.38
2023-04-02T08:25:39.642Z,90348.00
2023-04-02T08:28:24.593Z,90356.81
2023-04-02T08:31:09.560Z,90362.16
2023-04-02T08:33:54.477Z,90362.31
2023-04-02T08:36:39.127Z,90355.94
2023-04-02T08:39:23.991Z,90360.75
2023-04-02T08:42:08.920Z,90349.63
2023-04-02T08:44:53.878Z,90354.97
2023-04-02T08:47:38.638Z,90361.22
2023-04-02T08:50:23.775Z,90363.38
2023-04-02T08:53:08.572Z,90360.06
2023-04-02T08:55:53.162Z,90363.31
2023-04-02T08:58:37.938Z,90369.75
2023-04-02T09:01:23.015Z,90369.44
2023-04-02T09:04:07.985Z,90372.31
2023-04-02T09:06:52.735Z,90375.19
2023-04-02T09:09:37.688Z,90372.16
2023-04-02T09:12:22.629Z,90372.00
2023-04-02T09:15:07.566Z,90365.34
2023-04-02T09:17:54.438Z,90364.31
2023-04-02T09:20:39.800Z,90366.25
2023-04-02T09:23:24.855Z,90370.91
2023-04-02T09:26:09.815Z,90370.22
2023-04-02T09:28:54.922Z,90373.59
2023-04-02T09:31:39.866Z,90376.38
2023-04-02T09:34:24.875Z,90368.22
2023-04-02T09:37:09.829Z,90366.28
2023-04-02T09:39:54.658Z,90369.06
2023-04-02T09:42:39.741Z,90370.88
2023-04-02T09:45:24.585Z,90361.41
2023-04-02T09:48:09.550Z,90367.19
2023-04-02T09:50:54.342Z,90365.09
2023-04-02T09:53:41.819Z,90371.06
2023-04-02T09:56:27.058Z,90365.47
2023-04-02T09:59:12.215Z,90371.53
2023-04-02T10:01:57.109Z,90367.94
2023-04-02T10:04:41.774Z,90374.25
2023-04-02T10:07:26.656Z,90364.38
2023-04-02T10:10:11.508Z,90368.03
2023-04-02T10:12:56.508Z,90364.22
2023-04-02T10:15:41.372Z,90368.00
2023-04-02T10:18:26.531Z,90370.88
2023-04-02T10:21:11.436Z,90362.00
2023-04-02T10:23:56.024Z,90366.81
2023-04-02T10:26:40.969Z,90365.53
2023-04-02T10:29:25.980Z,90363.81
2023-04-02T10:32:11.006Z,90369.03
2023-04-02T10:34:55.868Z,90364.97
2023-04-02T10:37:40.900Z,90370.50
2023-04-02T10:40:25.737Z,90367.53
2023-04-02T10:43:10.914Z,90355.69
2023-04-02T10:45:55.825Z,90362.75
2023-04-02T10:48:40.969Z,90359.63
2023-04-02T10:51:25.793Z,90364.97
2023-04-02T10:54:10.989Z,90360.47
2023-04-02T10:56:55.930Z,90357.75
2023-04-02T10:59:40.674Z,90361.19
2023-04-02T11:02:25.840Z,90358.31
2023-04-02T11:05:10.862Z,90355.25
2023-04-02T11:07:55.839Z,90355.84
2023-04-02T11:10:40.689Z,90354.44
2023-04-02T11:13:25.794Z,90361.13
2023-04-02T11:16:10.760Z,90356.81
2023-04-02T11:18:55.695Z,90362.81
2023-04-02T11:21:55.019Z,90364.38
2023-04-02T11:24:43.093Z,90357.75
2023-04-02T11:27:27.813Z,90360.38
2023-04-02T11:30:12.547Z,90366.88
2023-04-02T11:32:57.433Z,90360.53
2023-04-02T11:35:42.413Z,90363.66
2023-04-02T11:38:27.224Z,90364.06
2023-04-02T11:41:12.193Z,90361.31
2023-04-02T11:43:57.190Z,90374.31
2023-04-02T11:46:42.199Z,90372.03
2023-04-02T11:49:27.080Z,90375.38
2023-04-02T11:52:12.833Z,90372.97
2023-04-02T11:54:57.605Z,90374.47
2023-04-02T11:57:42.571Z,90378.19
2023-04-02T12:00:27.558Z,90371.53
2023-04-02T12:03:12.564Z,90375.75
2023-04-02T12:05:57.631Z,90380.19
2023-04-02T12:08:56.742Z,90388.44
2023-04-02T12:11:42.489Z,90383.06
2023-04-02T12:14:27.551Z,90376.13
2023-04-02T12:17:12.842Z,90394.88
2023-04-02T12:19:57.752Z,90385.53
2023-04-02T12:22:42.621Z,90390.00
2023-04-02T12:25:27.576Z,90385.31
2023-04-02T12:28:12.344Z,90391.59
2023-04-02T12:30:57.068Z,90392.59
2023-04-02T12:33:41.989Z,90388.00
2023-04-02T12:36:26.855Z,90387.91
2023-04-02T12:39:11.712Z,90394.06
2023-04-02T12:41:56.594Z,90390.19
2023-04-02T12:44:41.526Z,90394.44
2023-04-02T12:47:26.647Z,90399.69
2023-04-02T12:50:11.873Z,90398.28
2023-04-02T12:52:56.799Z,90381.28
2023-04-02T12:55:41.947Z,90391.38
2023-04-02T12:58:26.983Z,90385.53
2023-04-02T13:01:11.984Z,90377.28
2023-04-02T13:03:56.987Z,90388.16
2023-04-02T13:06:42.184Z,90390.28
2023-04-02T13:09:28.561Z,90381.31
2023-04-02T13:12:13.421Z,90386.56
2023-04-02T13:14:58.503Z,90382.28
2023-04-02T13:17:43.301Z,90382.47
2023-04-02T13:20:28.072Z,90378.19
2023-04-02T13:23:13.039Z,90375.72
2023-04-02T13:25:57.887Z,90381.09
2023-04-02T13:28:42.871Z,90375.06
2023-04-02T13:31:28.113Z,90371.22
2023-04-02T13:34:13.248Z,90374.31
2023-04-02T13:36:57.899Z,90378.94
2023-04-02T13:39:42.961Z,90373.09
2023-04-02T13:42:27.854Z,90380.78
2023-04-02T13:45:12.846Z,90375.84
2023-04-02T13:47:57.820Z,90381.56
2023-04-02T13:50:42.667Z,90377.88
2023-04-02T13:53:27.550Z,90377.69
2023-04-02T13:56:12.388Z,90378.00
2023-04-02T13:58:57.517Z,90380.38
2023-04-02T14:01:42.228Z,90377.69
2023-04-02T14:04:27.202Z,90372.19
2023-04-02T14:07:11.883Z,90374.06
2023-04-02T14:09:57.104Z,90377.75
2023-04-02T14:12:41.881Z,90372.19
2023-04-02T14:15:26.886Z,90372.63
2023-04-02T14:18:11.576Z,90381.97
2023-04-02T14:20:56.229Z,90376.34
2023-04-02T14:23:41.444Z,90385.41
2023-04-02T14:26:26.156Z,90380.84
2023-04-02T14:29:10.954Z,90391.31
2023-04-02T14:31:55.910Z,90382.97
2023-04-02T14:34:40.875Z,90384.47
2023-04-02T14:37:25.825Z,90384.84
2023-04-02T14:40:10.632Z,90387.91
2023-04-02T14:42:55.471Z,90394.69
2023-04-02T14:45:40.568Z,90398.44
2023-04-02T14:48:25.839Z,90395.28
2023-04-02T14:51:10.553Z,90393.47
2023-04-02T14:53:55.528Z,90396.81
2023-04-02T14:56:40.434Z,90388.56
2023-04-02T14:59:25.387Z,90382.22
2023-04-02T15:02:09.866Z,90383.97
2023-04-02T15:04:55.014Z,90386.75
2023-04-02T15:07:39.955Z,90393.78
2023-04-02T15:10:24.951Z,90387.50
2023-04-02T15:13:09.907Z,90384.28
2023-04-02T15:15:54.497Z,90381.53
2023-04-02T15:18:39.786Z,90389.47
2023-04-02T15:21:24.388Z,90389.75
2023-04-02T15:24:09.471Z,90394.59
2023-04-02T15:26:54.309Z,90384.94
2023-04-02T15:29:39.047Z,90386.97
2023-04-02T15:32:24.106Z,90384.19
2023-04-02T15:35:08.776Z,90399.25
2023-04-02T15:37:53.786Z,90393.00
2023-04-02T15:40:38.752Z,90399.28
2023-04-02T15:43:23.732Z,90399.09
2023-04-02T15:46:08.607Z,90410.41
2023-04-02T15:48:53.220Z,90398.09
2023-04-02T15:51:38.136Z,90408.47
2023-04-02T15:54:22.904Z,90414.06
2023-04-02T15:57:07.811Z,90413.44
2023-04-02T15:59:52.862Z,90409.97
2023-04-02T16:02:37.629Z,90414.63
2023-04-02T16:05:26.408Z,90416.81
2023-04-02T16:08:11.523Z,90420.84
2023-04-02T16:10:56.700Z,90421.25
2023-04-02T16:13:41.579Z,90431.19
2023-04-02T16:16:26.832Z,90438.69
2023-04-02T16:19:16.834Z,90443.78
2023-04-02T16:22:01.921Z,90440.81
2023-04-02T16:24:46.952Z,90453.94
2023-04-02T16:27:31.735Z,90455.28
2023-04-02T16:30:16.961Z,90479.16
2023-04-02T16:33:03.192Z,90480.63
2023-04-02T16:35:48.142Z,90486.03
2023-04-02T16:38:33.082Z,90494.28
2023-04-02T16:41:18.064Z,90504.34
2023-04-02T16:44:04.291Z,90506.19
2023-04-02T16:46:49.256Z,90507.44
2023-04-02T16:49:34.292Z,90513.75
2023-04-02T16:52:19.179Z,90513.28
2023-04-02T16:55:04.211Z,90518.19
2023-04-02T16:57:49.209Z,90515.44
2023-04-02T17:00:34.099Z,90516.47
2023-04-02T17:03:19.661Z,90527.22
2023-04-02T17:06:05.068Z,90520.50
2023-04-02T17:08:49.845Z,90529.69
2023-04-02T17:11:34.852Z,90532.31
2023-04-02T17:14:19.923Z,90540.03
2023-04-02T17:17:04.827Z,90544.84
2023-04-02T17:19:49.896Z,90549.66
2023-04-02T17:22:34.847Z,90547.88
2023-04-02T17:25:19.801Z,90557.22
2023-04-02T17:28:04.844Z,90562.94
2023-04-02T17:30:49.844Z,90563.16
2023-04-02T17:33:34.805Z,90556.25
2023-04-02T17:36:19.685Z,90558.94
2023-04-02T17:39:04.632Z,90568.66
2023-04-02T17:41:49.462Z,90576.13
2023-04-02T17:44:34.130Z,90581.53
2023-04-02T17:47:19.178Z,90585.19
2023-04-02T17:50:04.175Z,90591.09
2023-04-02T17:52:49.182Z,90587.97
2023-04-02T17:55:34.132Z,90595.63
2023-04-02T17:58:19.196Z,90589.78
2023-04-02T18:01:04.220Z,90583.91
2023-04-02T18:03:49.069Z,90586.06
2023-04-02T18:06:33.829Z,90588.75
2023-04-02T18:09:18.665Z,90600.41
2023-04-02T18:12:03.802Z,90598.41
2023-04-02T18:14:48.606Z,90606.13
2023-04-02T18:17:33.529Z,90608.66
2023-04-02T18:20:18.319Z,90609.22
2023-04-02T18:23:03.300Z,90608.47
2023-04-02T18:25:47.961Z,90610.81
2023-04-02T18:28:32.968Z,90609.72
2023-04-02T18:31:17.985Z,90610.91
2023-04-02T18:34:02.839Z,90614.91
2023-04-02T18:36:47.622Z,90622.66
2023-04-02T18:39:32.405Z,90624.50
2023-04-02T18:42:17.007Z,90626.50
2023-04-02T18:45:01.920Z,90637.00
2023-04-02T18:47:46.636Z,90634.25
2023-04-02T18:50:31.802Z,90641.75
2023-04-02T18:53:16.541Z,90647.78
2023-04-02T18:56:01.398Z,90650.28
2023-04-02T18:58:46.191Z,90651.78
2023-04-02T19:01:31.267Z,90655.78
2023-04-02T19:04:15.961Z,90665.50
2023-04-02T19:07:01.021Z,90672.69
2023-04-02T19:09:45.971Z,90673.50
2023-04-02T19:12:31.095Z,90676.50
2023-04-02T19:15:16.061Z,90678.75
2023-04-02T19:18:01.055Z,90678.56
2023-04-02T19:20:45.622Z,90680.63
2023-04-02T19:23:30.394Z,90685.88
2023-04-02T19:26:15.340Z,90685.44
2023-04-02T19:29:00.145Z,90687.47
2023-04-02T19:31:44.919Z,90692.44
2023-04-02T19:34:29.786Z,90702.66
2023-04-02T19:37:14.449Z,90704.16
2023-04-02T19:39:59.306Z,90704.91
2023-04-02T19:42:44.375Z,90696.44
2023-04-02T19:45:28.938Z,90700.47
2023-04-02T19:48:13.794Z,90702.22
2023-04-02T19:50:58.806Z,90702.28
2023-04-02T19:53:43.549Z,90708.78
2023-04-02T19:56:28.335Z,90705.81
2023-04-02T20:02:00.942Z,90716.50
2023-04-02T20:04:45.872Z,90716.28
2023-04-02T20:07:30.943Z,90717.78
2023-04-02T20:10:15.734Z,90723.25
2023-04-02T20:13:00.749Z,90728.22
2023-04-02T20:15:45.806Z,90728.03
2023-04-02T20:18:30.717Z,90725.03
2023-04-02T20:21:15.644Z,90728.03
2023-04-02T20:24:00.640Z,90733.75
2023-04-02T20:26:45.299Z,90733.25
2023-04-02T20:29:30.479Z,90735.00
2023-04-02T20:32:15.218Z,90729.53
2023-04-02T20:35:00.007Z,90737.00
2023-04-02T20:37:44.894Z,90734.25
2023-04-02T20:40:29.953Z,90743.19
2023-04-02T20:43:14.831Z,90746.47
2023-04-02T20:46:00.024Z,90752.16
2023-04-02T20:48:44.567Z,90739.75
2023-04-02T20:51:29.502Z,90755.19
2023-04-02T20:54:14.480Z,90751.44
2023-04-02T20:56:59.433Z,90750.22
2023-04-02T20:59:44.422Z,90754.91
2023-04-02T21:02:29.500Z,90746.72
2023-04-02T21:05:14.599Z,90751.72
2023-04-02T21:07:59.659Z,90751.44
2023-04-02T21:10:44.528Z,90750.22
2023-04-02T21:13:29.198Z,90750.44
2023-04-02T21:16:14.021Z,90758.16
2023-04-02T21:18:58.910Z,90760.88
2023-04-02T21:21:43.756Z,90765.38
2023-04-02T21:24:28.609Z,90772.31
2023-04-02T21:27:13.185Z,90767.59
2023-04-02T21:29:57.936Z,90772.81
2023-04-02T21:32:42.826Z,90777.53
2023-04-02T21:35:27.929Z,90771.34
2023-04-02T21:38:12.948Z,90770.84
2023-04-02T21:40:57.696Z,90779.03
2023-04-02T21:43:42.645Z,90777.28
2023-04-02T21:46:27.404Z,90787.22
2023-04-02T21:49:12.313Z,90784.50
2023-04-02T21:51:57.128Z,90783.97
2023-04-02T21:54:41.874Z,90786.97
2023-04-02T21:57:26.808Z,90784.25
2023-04-02T22:00:11.740Z,90790.41
2023-04-02T22:02:56.800Z,90787.19
2023-04-02T22:05:42.093Z,90787.91
2023-04-02T22:08:26.991Z,90789.13
2023-04-02T22:11:13.070Z,90797.09
2023-04-02T22:13:58.151Z,90787.66
2023-04-02T22:16:43.013Z,90795.09
2023-04-02T22:19:28.020Z,90798.53
2023-04-02T22:22:12.688Z,90792.34
2023-04-02T22:24:57.753Z,90794.31
2023-04-02T22:27:42.525Z,90797.31
2023-04-02T22:30:27.432Z,90792.34
2023-04-02T22:33:12.387Z,90796.78
2023-04-02T22:35:57.421Z,90801.78
2023-04-02T22:38:42.124Z,90795.84
2023-04-02T22:41:26.787Z,90800.75
2023-04-02T22:44:11.883Z,90806.00
2023-04-02T22:46:56.816Z,90805.47
2023-04-02T22:49:41.763Z,90804.25
2023-04-02T22:52:26.573Z,90807.47
2023-04-02T22:55:11.605Z,90809.94
2023-04-02T22:57:56.348Z,90805.72
2023-04-02T23:00:41.282Z,90804.00
2023-04-02T23:03:26.182Z,90794.81
2023-04-02T23:06:11.049Z,90800.78
2023-04-02T23:08:55.973Z,90798.31
2023-04-02T23:11:40.725Z,90789.88
2023-04-02T23:14:25.738Z,90790.84
2023-04-02T23:17:10.640Z,90797.06
2023-04-02T23:19:55.741Z,90795.78
2023-04-02T23:22:40.601Z,90798.25
2023-04-02T23:25:25.827Z,90802.47
2023-04-02T23:28:10.873Z,90799.25
2023-04-02T23:30:55.457Z,90792.31
2023-04-02T23:33:40.470Z,90791.56
2023-04-02T23:36:25.167Z,90797.78
2023-04-02T23:39:10.022Z,90792.31
2023-04-02T23:41:54.981Z,90792.31
2023-04-02T23:44:39.814Z,90785.84
2023-04-02T23:47:24.827Z,90783.88
2023-04-02T23:50:09.668Z,90790.56
2023-04-02T23:52:54.769Z,90787.59
2023-04-02T23:55:39.686Z,90785.88
2023-04-02T23:58:24.784Z,90786.41
